Koeln, Germany

4:33 PM CET on January 27, 2015 (GMT +0100)
Lind | Change Station
CLOSE
Current Station
Personal Weather Station
Location: Koeln, NRW
Elevation: 177 ft
Nearby Weather Stations

Elev 177 ft 50.85 °N, 7.10 °E | Updated 2 minutes ago

Rain Showers
Showers Rain
41.3 °F
Feels Like 38 °F
N
4.5
Wind Variable Wind from WNW
Gusts 9.6 mph

Today
High -- | Low -- °F
--% Chance of Precip.
Yesterday
High -- | Low -- °F
Precip. -- in
8:15 AM 5:13 PM
First Quarter, 55% visible
Pressure 30.18 in
Visibility 3.7 miles
Clouds Few 300 ft
Mostly Cloudy 1200 ft
Mostly Cloudy 2000 ft
Windchill 38 °F
Dew Point 37 °F
Humidity 85%
Rainfall 0.00 in
Snow Depth Not available.
UV 0.0 out of 12
Pollen Not available.
Air Quality Not available.
Flu Activity Not available.
METAR EDDK 271520Z 32011KT 6000 1800W SHRA FEW003 BKN012CB BKN020 04/03 Q1022 BECMG NSW

More Conditions Fewer Conditions

Pressure 30.18 in
Visibility 3.7 miles
Clouds Few 300 ft
Mostly Cloudy 1200 ft
Mostly Cloudy 2000 ft
Windchill 38 °F
Dew Point 37 °F
Humidity 85%
Rainfall 0.00 in
Snow Depth Not available.
UV 0.0 out of 12
Pollen Not available.
Air Quality Not available.
Flu Activity Not available.
METAR EDDK 271520Z 32011KT 6000 1800W SHRA FEW003 BKN012CB BKN020 04/03 Q1022 BECMG NSW

More Conditions Fewer Conditions

10-Day Weather Forecast

Almanac

Astronomy

Jan. 27, 2015 Rise Set
Actual Time
Civil Twilight
Nautical Twilight
Astronomical Twilight
Moon
Length of Visible Light
Length of Day
Tomorrow will be .
, % of the Moon is Illuminated

Today's Extremes

Country Highs Country Lows

Community

WunderPhotos

Upload Photos

1,790,689 photos uploaded!

WunderBlogs® & News

Nearby

Air Quality

  Air Quality AQ Index Pollutant
Not available.

Snow Depth

Station Depth Elevation

Earthquake Activity

City Distance Mag. Time & Date
Minimum magnitude displayed is 2.5.

Coastal Water Temperatures

Place Temperature

Nearby Weather Stations